• Join FlightAware (Why Join?)
  • Login
  • US Flag 
08:52PM EDT


 

Airport Tracker/Info


-or-


 

Live Flight TrackerFlight Track Log ✈ CHH7071 ✈ 09-Oct-2013 ✈ ZJHK / HAK - ZSCN / KHN

Flight Track Log - Related Links

Times and Time Zones

All times are in EDT time to prevent confusion due to time zone crossing. See the CHH7071 flight status page for this flight to view local times or setup timezone preferences in your user account.

Time Position Orientation Groundspeed Altitude Reporting Facility
EDT Latitude Longitude Course Direction KTS MPH feet Rate Location/Type
04:32AM 20.0409 110.5189 28° Northeast  Level Estimated
04:33AM 20.1470 110.5788 28° Northeast  Level Estimated
04:34AM 20.2530 110.6389 28° Northeast  Level Estimated
04:35AM 20.3591 110.6990 28° Northeast  Level Estimated
04:36AM 20.4650 110.7592 28° Northeast  Level Estimated
04:37AM 20.5710 110.8195 28° Northeast  Level Estimated
04:38AM 20.6770 110.8799 28° Northeast  Level Estimated
04:39AM 20.7829 110.9404 28° Northeast  Level Estimated
04:40AM 20.8888 111.0009 28° Northeast  Level Estimated
04:41AM 20.9947 111.0616 28° Northeast  Level Estimated
04:42AM 21.1006 111.1223 28° Northeast  Level Estimated
04:43AM 21.2064 111.1831 28° Northeast  Level Estimated
04:44AM 21.3123 111.2440 28° Northeast  Level Estimated
04:45AM 21.4181 111.3050 28° Northeast  Level Estimated
04:46AM 21.5238 111.3661 28° Northeast  Level Estimated
04:47AM 21.6296 111.4272 28° Northeast  Level Estimated
04:48AM 21.7353 111.4885 28° Northeast  Level Estimated
04:49AM 21.8410 111.5498 28° Northeast  Level Estimated
04:49AM 22.8290 112.2150 28° Northeast 465 535 35,100  Level FlightAware
04:50AM 21.9467 111.6113 28° Northeast  Level Estimated
04:50AM 22.8820 112.2750 46° Northeast 466 536 35,100  Level FlightAware
04:51AM 22.9330 112.3320 46° Northeast 466 536 35,100  Level FlightAware
04:51AM 22.9840 112.3900 46° Northeast 466 536 35,100  Level FlightAware
04:52AM 23.0350 112.4470 46° Northeast 467 537 35,100  Level FlightAware
04:52AM 23.0550 112.4790 56° Northeast 463 533 35,100  Level FlightAware
04:52AM 23.0630 112.5050 72° East 460 529 35,100  Level FlightAware
04:52AM 23.0660 112.5370 84° East 456 525 35,100  Level FlightAware
04:53AM 23.0610 112.6220 94° East 455 524 35,100  Level FlightAware
04:54AM 23.0560 112.7010 94° East 455 524 35,100  Level FlightAware
04:54AM 23.0500 112.7840 94° East 456 525 35,100  Level FlightAware
04:55AM 23.0450 112.8600 94° East 456 525 35,100  Level FlightAware
04:55AM 23.0390 112.9400 95° East 456 525 35,100  Level FlightAware
04:56AM 23.0330 113.0250 94° East 456 525 35,100  Level FlightAware
04:57AM 23.0280 113.1050 94° East 457 526 35,100  Level FlightAware
04:57AM 23.0230 113.1790 94° East 459 528 35,100  Level FlightAware
04:58AM 23.0290 113.2610 85° East 462 532 35,100  Level FlightAware
04:58AM 23.0380 113.3450 83° East 463 533 35,100  Level FlightAware
04:59AM 23.0470 113.4260 83° East 463 533 35,100  Level FlightAware
04:59AM 23.0560 113.5100 83° East 463 533 35,100  Level FlightAware
05:00AM 23.0630 113.5810 84° East 463 533 35,100  Level FlightAware
05:01AM 23.0730 113.6670 83° East 464 534 35,100  Level FlightAware
05:01AM 23.0810 113.7510 84° East 463 533 35,100  Level FlightAware
05:02AM 23.0960 113.8330 79° East 467 537 35,100  Level FlightAware
05:02AM 23.1090 113.8580 61° Northeast 469 540 35,100  Level FlightAware
05:02AM 23.1330 113.8850 46° Northeast 470 541 35,100  Level FlightAware
05:03AM 23.1880 113.9320 38° Northeast 470 541 35,100  Level FlightAware
05:03AM 23.2450 113.9810 38° Northeast 470 541 35,100  Level FlightAware
05:04AM 23.3100 114.0360 38° Northeast 470 541 35,100  Level FlightAware
05:05AM 23.3660 114.0840 38° Northeast 469 540 35,100  Level FlightAware
05:05AM 23.4300 114.1390 38° Northeast 470 541 35,100  Level FlightAware
05:06AM 23.4890 114.1900 38° Northeast 470 541 35,100  Level FlightAware
05:06AM 23.5470 114.2390 38° Northeast 470 541 35,100  Level FlightAware
05:07AM 23.6080 114.2910 38° Northeast 471 542 35,100  Level FlightAware
05:07AM 23.6520 114.3390 45° Northeast 470 541 35,100  Level FlightAware
05:08AM 23.6960 114.4030 53° Northeast 471 542 35,100  Level FlightAware
05:09AM 23.7420 114.4650 51° Northeast 473 544 35,100  Level FlightAware
05:09AM 23.8020 114.5220 41° Northeast 474 545 35,100  Level FlightAware
05:10AM 23.8590 114.5690 37° Northeast 476 548 35,100  Level FlightAware
05:10AM 23.9230 114.6210 37° Northeast 477 549 35,100  Level FlightAware
05:11AM 23.9970 114.6820 37° Northeast 478 550 35,100  Level FlightAware
05:12AM 24.0600 114.7340 37° Northeast 478 550 35,100  Level FlightAware
05:12AM 24.1260 114.7880 37° Northeast 479 551 35,100  Level FlightAware
05:13AM 24.2080 114.8560 37° Northeast 477 549 35,100  Level FlightAware
05:14AM 24.2620 114.9010 37° Northeast 477 549 35,100  Level FlightAware
05:14AM 24.3160 114.9450 37° Northeast 477 549 35,100  Level FlightAware
05:14AM 24.4010 114.9350 354° North 472 543 35,100  Level FlightAware
05:15AM 24.4710 114.9520 12° North 472 543 35,100 -660 Level FlightAware
05:16AM 24.5370 114.9680 12° North 466 536 34,400 -600 Descending FlightAware
05:16AM 24.6100 114.9860 13° North 466 536 34,400  Level FlightAware
05:17AM 24.6750 115.0010 12° North 466 536 34,400  Level FlightAware
05:18AM 24.7410 115.0160 12° North 466 536 34,400  Level FlightAware
05:18AM 24.8020 115.0300 12° North 466 536 34,400  Level FlightAware
05:19AM 24.8670 115.0460 13° North 466 536 34,400  Level FlightAware
05:19AM 24.9310 115.0610 12° North 466 536 34,400  Level FlightAware
05:20AM 24.9920 115.0750 12° North 466 536 34,400  Level FlightAware
05:20AM 25.0570 115.0900 12° North 466 536 34,400  Level FlightAware
05:21AM 25.1230 115.1060 12° North 466 536 34,400  Level FlightAware
05:22AM 25.1870 115.1210 12° North 466 536 34,400  Level FlightAware
05:22AM 25.2520 115.1360 12° North 466 536 34,400  Level FlightAware
05:23AM 25.3160 115.1510 12° North 466 536 34,400  Level FlightAware
05:23AM 25.3810 115.1660 12° North 466 536 34,400  Level FlightAware
05:24AM 25.4470 115.1820 12° North 466 536 34,400  Level FlightAware
05:25AM 25.5120 115.1970 12° North 466 536 34,400  Level FlightAware
05:25AM 25.5760 115.2120 12° North 466 536 34,400  Level FlightAware
05:28AM 25.8378 115.2653 10° North  Level Estimated
05:29AM 25.9559 115.2894 10° North  Level Estimated
05:30AM 26.0740 115.3136 10° North  Level Estimated
05:31AM 26.1921 115.3378 10° North  Level Estimated
05:32AM 26.3102 115.3621 10° North  Level Estimated
05:33AM 26.4283 115.3864 10° North  Level Estimated
05:34AM 26.5464 115.4108 10° North  Level Estimated
05:35AM 26.6645 115.4352 10° North  Level Estimated
05:36AM 26.7826 115.4597 10° North  Level Estimated
05:37AM 26.9006 115.4842 10° North  Level Estimated
05:38AM 27.0187 115.5088 11° North  Level Estimated
05:39AM 27.1368 115.5334 11° North  Level Estimated
05:40AM 27.2548 115.5580 11° North  Level Estimated
05:41AM 27.3729 115.5828 11° North  Level Estimated
05:42AM 27.4909 115.6075 11° North  Level Estimated
05:43AM 27.6090 115.6324 11° North  Level Estimated
05:44AM 27.7270 115.6572 11° North  Level Estimated
05:45AM 27.8451 115.6822 11° North  Level Estimated
05:46AM 27.9631 115.7072 11° North  Level Estimated
05:47AM 28.0812 115.7322 11° North  Level Estimated
05:48AM 28.1992 115.7573 11° North  Level Estimated
05:49AM 28.3172 115.7825 11° North  Level Estimated
05:50AM 28.4352 115.8077 11° North  Level Estimated
05:51AM 28.5532 115.8330 11° North  Level Estimated
05:52AM 28.6712 115.8583 11° North  Level Estimated
05:53AM 28.7892 115.8837 11° North  Level Estimated
05:54AM 28.8650 115.9000 11° North  Level Estimated
05:55AM 28.8650 115.9000 North  Level Estimated
05:56AM 28.8650 115.9000 North  Level Estimated
05:57AM 28.8650 115.9000 North  Level Estimated
05:58AM 28.8650 115.9000 North  Level Estimated
05:59AM 28.8650 115.9000 North  Level Estimated
06:00AM 28.8650 115.9000 North  Level Estimated
06:01AM 28.8650 115.9000 North  Level Estimated
06:02AM 28.8650 115.9000 North  Level Estimated
06:03AM 28.8650 115.9000 North  Level Estimated
06:04AM 28.8650 115.9000 North  Level Estimated
06:05AM 28.8650 115.9000 North  Level Estimated
06:06AM 28.8650 115.9000 North  Level Estimated
06:07AM 28.8650 115.9000 North  Level Estimated
06:08AM 28.8650 115.9000 North  Level Estimated
06:09AM 28.8650 115.9000 North  Level Estimated
06:10AM 28.8650 115.9000 North  Level Estimated
06:11AM 28.8650 115.9000 North  Level Estimated
06:12AM 28.8650 115.9000 North  Level Estimated